Time;durP1;ratioP1;P1;durP2;ratioP2;P2;SDS_P1;SDS_P2;PMS_P1;PMS_P2;Temp;Humidity;BMP_temperature;BMP_pressure;BME280_temperature;BME280_humidity;BME280_pressure;Samples;Min_cycle;Max_cycle;Signal;HPM_P1;HPM_P2
2022/08/28 00:02:03;;;;;;;3.30;0.90;;;;;;;23.54;38.39;101771.38;16144722;19;130322;-44
2022/08/28 00:07:25;;;;;;;5.85;1.20;;;;;;;23.53;38.19;101776.09;16136538;19;130492;-43
2022/08/28 00:12:48;;;;;;;2.10;1.27;;;;;;;23.53;38.09;101784.47;16143752;19;131875;-43
2022/08/28 00:18:10;;;;;;;4.63;1.05;;;;;;;23.51;38.08;101773.56;16140961;19;128951;-44
2022/08/28 00:23:32;;;;;;;1.98;0.98;;;;;;;23.49;38.26;101774.94;16142041;19;129228;-43
2022/08/28 00:29:05;;;;;;;2.95;1.00;;;;;;;23.49;37.90;101788.91;16142520;19;129302;-43
2022/08/28 00:34:27;;;;;;;3.05;1.13;;;;;;;23.47;38.04;101788.31;16141776;19;130042;-43
2022/08/28 00:39:54;;;;;;;3.00;1.30;;;;;;;23.48;37.85;101784.41;16135281;19;129786;-45
2022/08/28 00:45:22;;;;;;;2.65;1.25;;;;;;;23.48;37.81;101781.63;16136436;19;130243;-53
2022/08/28 00:56:25;;;;;;;4.35;0.93;;;;;;;23.44;38.13;101795.28;16138951;19;129423;-45
2022/08/28 01:01:50;;;;;;;1.98;1.08;;;;;;;23.43;37.73;101793.56;16138119;19;129329;-49
2022/08/28 01:07:13;;;;;;;1.97;1.30;;;;;;;23.43;37.87;101793.56;16133301;19;129375;-44
2022/08/28 01:12:36;;;;;;;2.53;1.13;;;;;;;23.43;37.84;101798.31;16139298;19;129500;-46
2022/08/28 01:18:02;;;;;;;3.10;1.10;;;;;;;23.43;37.95;101804.75;16136923;19;130245;-45
2022/08/28 01:23:52;;;;;;;1.98;1.20;;;;;;;23.43;38.06;101803.88;16136282;19;129423;-43
2022/08/28 01:29:14;;;;;;;2.10;1.20;;;;;;;23.40;37.92;101805.25;16138204;19;129040;-44
2022/08/28 01:34:36;;;;;;;2.53;1.23;;;;;;;23.40;37.72;101808.03;16137616;19;131065;-47
2022/08/28 01:40:00;;;;;;;3.00;1.30;;;;;;;23.38;37.66;101806.63;16131410;19;129510;-46
2022/08/28 01:45:23;;;;;;;5.10;1.48;;;;;;;23.37;37.71;101804.94;16132381;19;129991;-46
2022/08/28 01:50:45;;;;;;;4.35;1.48;;;;;;;23.35;37.64;101819.13;16135399;19;129858;-43
2022/08/28 01:56:11;;;;;;;5.63;1.63;;;;;;;23.34;37.65;101818.31;16136216;19;129414;-45
2022/08/28 02:01:37;;;;;;;5.88;1.70;;;;;;;23.33;37.50;101810.16;16130100;19;129354;-45
2022/08/28 02:06:59;;;;;;;3.95;1.80;;;;;;;23.33;37.67;101811.03;16129643;19;129444;-44
2022/08/28 02:12:20;;;;;;;4.35;1.90;;;;;;;23.30;37.90;101814.31;16134622;19;129281;-44
2022/08/28 02:17:42;;;;;;;6.15;2.10;;;;;;;23.30;37.67;101822.69;16131396;19;130517;-44
2022/08/28 02:23:05;;;;;;;4.50;1.60;;;;;;;23.31;37.70;101829.97;16132945;19;129414;-45
2022/08/28 02:28:28;;;;;;;5.00;1.70;;;;;;;23.29;37.67;101828.56;16133212;19;129761;-44
2022/08/28 02:33:50;;;;;;;4.22;1.70;;;;;;;23.27;37.80;101826.00;16140700;19;129379;-47
2022/08/28 02:39:12;;;;;;;5.10;2.13;;;;;;;23.27;37.45;101822.38;16145717;19;131157;-44
2022/08/28 02:44:35;;;;;;;4.55;1.92;;;;;;;23.28;37.55;101829.66;16145335;19;131511;-44
2022/08/28 02:49:58;;;;;;;5.63;2.00;;;;;;;23.27;37.60;101826.00;16148917;19;129148;-46
2022/08/28 02:55:19;;;;;;;4.85;2.10;;;;;;;23.25;37.61;101822.63;16144367;19;130500;-46
2022/08/28 03:00:42;;;;;;;3.03;1.80;;;;;;;23.24;37.33;101836.84;16147228;19;130794;-47
2022/08/28 03:06:05;;;;;;;4.50;1.80;;;;;;;23.22;37.17;101837.09;16144447;19;129876;-46
2022/08/28 03:11:27;;;;;;;5.18;2.15;;;;;;;23.21;37.48;101835.41;16147644;19;129950;-46
2022/08/28 03:16:48;;;;;;;4.82;1.90;;;;;;;23.21;37.51;101841.00;16146269;19;129916;-44
2022/08/28 03:22:11;;;;;;;5.07;2.03;;;;;;;23.20;37.91;101844.88;16147478;19;132892;-48
2022/08/28 03:27:33;;;;;;;5.68;1.98;;;;;;;23.19;37.83;101848.78;16140034;19;129458;-48
2022/08/28 03:32:55;;;;;;;5.20;2.00;;;;;;;23.19;37.57;101846.84;16144263;19;129648;-46
2022/08/28 03:38:17;;;;;;;3.83;1.70;;;;;;;23.19;37.52;101859.94;16143948;19;130033;-45
2022/08/28 03:43:39;;;;;;;5.05;1.73;;;;;;;23.18;37.42;101852.66;16142919;19;130040;-46
2022/08/28 03:49:02;;;;;;;5.18;2.10;;;;;;;23.16;37.53;101844.56;16139017;19;131018;-44
2022/08/28 03:54:24;;;;;;;6.50;2.05;;;;;;;23.15;37.54;101844.78;16144235;19;129226;-46
2022/08/28 03:59:48;;;;;;;4.55;1.70;;;;;;;23.14;37.35;101849.53;16142094;19;129307;-47
2022/08/28 04:05:10;;;;;;;3.10;1.70;;;;;;;23.14;37.67;101859.88;16142147;19;129331;-45
2022/08/28 04:10:32;;;;;;;5.30;1.70;;;;;;;23.14;37.81;101851.50;16143799;19;129312;-44
2022/08/28 04:15:59;;;;;;;6.07;1.90;;;;;;;23.13;37.67;101863.75;16136604;19;130235;-45
2022/08/28 04:21:23;;;;;;;4.72;1.60;;;;;;;23.12;37.22;101860.09;16143539;19;130877;-45
2022/08/28 04:26:44;;;;;;;4.97;1.88;;;;;;;23.11;37.60;101865.97;16139020;19;130260;-47
2022/08/28 04:32:06;;;;;;;4.50;1.60;;;;;;;23.11;37.72;101868.75;16142670;19;130141;-49
2022/08/28 04:37:28;;;;;;;3.58;1.77;;;;;;;23.10;37.50;101876.25;16140304;19;130233;-47
2022/08/28 04:42:50;;;;;;;4.95;1.60;;;;;;;23.12;37.86;101881.59;16139988;19;130408;-47
2022/08/28 04:48:12;;;;;;;4.38;1.52;;;;;;;23.09;37.28;101880.16;16134377;19;129386;-46
2022/08/28 04:53:37;;;;;;;4.22;1.45;;;;;;;23.09;37.77;101887.69;16135205;19;132273;-45
2022/08/28 04:59:02;;;;;;;4.80;1.55;;;;;;;23.08;37.94;101889.63;16139046;19;130344;-49
2022/08/28 05:04:25;;;;;;;4.28;1.55;;;;;;;23.07;37.72;101896.31;16138083;19;129087;-47
2022/08/28 05:09:52;;;;;;;5.30;1.67;;;;;;;23.08;37.54;101902.75;16138333;19;129523;-45
2022/08/28 05:15:13;;;;;;;9.35;1.80;;;;;;;23.05;37.91;101904.94;16138295;19;129228;-44
2022/08/28 05:20:40;;;;;;;4.32;1.50;;;;;;;23.07;37.95;101906.63;16138963;19;129317;-49
2022/08/28 05:26:02;;;;;;;4.22;1.50;;;;;;;23.10;37.47;101912.53;16133199;19;129036;-44
2022/08/28 05:31:25;;;;;;;6.47;1.60;;;;;;;23.17;37.51;101909.59;16131965;19;129856;-44
2022/08/28 05:36:47;;;;;;;4.57;1.67;;;;;;;23.25;37.35;101916.69;16134948;19;129678;-45
2022/08/28 05:42:09;;;;;;;6.05;1.42;;;;;;;23.31;37.60;101913.72;16127741;19;130609;-46
2022/08/28 05:47:31;;;;;;;5.13;1.67;;;;;;;23.38;37.42;101921.09;16127681;19;129751;-44
2022/08/28 05:52:53;;;;;;;3.80;1.27;;;;;;;23.45;37.25;101924.56;16131187;19;129489;-45
2022/08/28 05:58:30;;;;;;;6.38;1.77;;;;;;;23.50;37.28;101922.69;16132809;19;129559;-46
2022/08/28 06:03:58;;;;;;;5.10;1.83;;;;;;;23.55;37.04;101918.28;16135473;19;130282;-46
2022/08/28 06:09:23;;;;;;;3.42;1.42;;;;;;;23.61;37.48;101929.31;16132082;19;129422;-44
2022/08/28 06:14:50;;;;;;;6.20;1.75;;;;;;;23.66;37.10;101929.38;16132543;19;129336;-44
2022/08/28 06:20:11;;;;;;;7.95;1.67;;;;;;;23.71;37.12;101944.53;16133999;19;129398;-44
2022/08/28 06:25:48;;;;;;;5.22;1.63;;;;;;;23.75;36.78;101948.53;16130408;19;129621;-45
2022/08/28 06:31:09;;;;;;;7.80;1.42;;;;;;;23.77;37.24;101946.28;16128430;19;129335;-45
2022/08/28 06:36:52;;;;;;;8.20;1.52;;;;;;;23.80;36.89;101954.16;16129913;19;129303;-43
2022/08/28 06:42:14;;;;;;;5.25;1.40;;;;;;;23.83;36.87;101959.25;16124149;19;129037;-46
2022/08/28 06:47:36;;;;;;;4.97;1.67;;;;;;;23.88;37.02;101966.84;16126710;19;129883;-45
2022/08/28 06:52:58;;;;;;;5.85;1.30;;;;;;;23.91;36.71;101969.13;16132019;19;130034;-45
2022/08/28 06:58:20;;;;;;;4.85;1.60;;;;;;;23.94;36.70;101969.47;16132627;19;129869;-45
2022/08/28 07:03:46;;;;;;;4.68;1.30;;;;;;;23.97;36.45;101962.50;16132446;19;129525;-44
2022/08/28 07:09:12;;;;;;;6.20;2.05;;;;;;;24.01;36.63;101965.63;16125419;19;129569;-44
2022/08/28 07:14:34;;;;;;;7.35;1.40;;;;;;;24.02;36.18;101970.13;16130966;19;131466;-44
2022/08/28 07:19:55;;;;;;;4.45;1.42;;;;;;;24.03;36.42;101975.47;16138923;19;129090;-44
2022/08/28 07:25:17;;;;;;;3.42;1.13;;;;;;;24.06;36.40;101985.28;16145066;19;129844;-46
2022/08/28 07:30:40;;;;;;;3.17;1.30;;;;;;;24.07;36.37;101986.97;16138919;19;129301;-43
2022/08/28 07:36:09;;;;;;;4.40;1.40;;;;;;;24.08;36.39;101994.25;16145655;19;129424;-45
2022/08/28 07:41:43;;;;;;;5.15;1.20;;;;;;;24.10;36.30;101998.47;16144540;19;131182;-44
2022/08/28 07:47:05;;;;;;;2.55;0.93;;;;;;;24.10;36.46;101992.88;16142191;19;129168;-43
2022/08/28 07:52:29;;;;;;;2.07;0.80;;;;;;;24.11;36.41;101990.94;16143384;19;129149;-45
2022/08/28 07:57:51;;;;;;;3.78;1.40;;;;;;;24.12;36.58;102001.88;16142423;19;131056;-44
2022/08/28 08:03:13;;;;;;;7.50;1.77;;;;;;;24.16;36.57;101999.38;16139482;19;129698;-49
2022/08/28 08:08:36;;;;;;;6.35;1.90;;;;;;;24.19;36.28;102001.69;16138702;19;134220;-46
2022/08/28 08:14:02;;;;;;;7.10;1.30;;;;;;;24.22;36.69;102005.91;16142973;19;129527;-44
2022/08/28 08:19:26;;;;;;;5.22;1.80;;;;;;;24.21;36.96;102004.19;16143382;19;129881;-48
2022/08/28 08:24:48;;;;;;;4.75;1.60;;;;;;;24.21;36.91;102012.59;16142089;19;131121;-45
2022/08/28 08:30:10;;;;;;;6.28;1.60;;;;;;;24.21;36.54;102016.25;16136151;19;129309;-45
2022/08/28 08:35:32;;;;;;;9.98;1.80;;;;;;;24.21;36.49;102010.66;16140266;19;129003;-45
2022/08/28 08:40:54;;;;;;;7.22;1.75;;;;;;;24.22;36.67;102000.31;16138255;19;129884;-45
2022/08/28 08:46:18;;;;;;;5.53;1.63;;;;;;;24.21;36.42;102005.06;16137883;19;129637;-44
2022/08/28 08:51:46;;;;;;;4.93;1.63;;;;;;;24.20;36.47;102008.97;16139690;19;128896;-49
2022/08/28 08:57:11;;;;;;;6.00;1.63;;;;;;;24.19;36.48;101996.09;16140347;19;129016;-44
2022/08/28 09:02:37;;;;;;;;;;;;;;;24.15;36.51;102006.09;16139625;19;129073;-47
2022/08/28 09:08:01;;;;;;;4.43;1.17;;;;;;;24.17;36.47;102003.03;16136841;19;129401;-46
2022/08/28 09:13:37;;;;;;;5.78;2.00;;;;;;;24.14;36.65;102004.38;16140875;19;129532;-47
2022/08/28 09:19:00;;;;;;;5.50;1.40;;;;;;;24.11;36.56;102004.94;16138883;19;129683;-45
2022/08/28 09:24:28;;;;;;;5.70;1.40;;;;;;;24.09;35.95;102013.56;16135150;19;128807;-45
2022/08/28 09:29:59;;;;;;;5.35;1.52;;;;;;;24.04;36.10;102007.03;16133303;19;129464;-45
2022/08/28 09:35:30;;;;;;;8.18;1.95;;;;;;;23.96;36.04;102011.97;16140491;19;129349;-44
2022/08/28 09:46:51;;;;;;;2.95;1.20;;;;;;;23.89;36.15;102025.28;16134063;19;131283;-44
2022/08/28 09:52:19;;;;;;;5.63;1.58;;;;;;;23.87;36.17;102021.91;16135741;19;129381;-45
2022/08/28 09:57:46;;;;;;;3.83;1.40;;;;;;;23.85;36.03;102012.06;16135913;19;129508;-46
2022/08/28 10:03:18;;;;;;;4.95;1.55;;;;;;;23.84;35.83;102005.66;16133708;19;128966;-44
2022/08/28 10:09:11;;;;;;;3.30;1.08;;;;;;;23.83;35.54;102009.53;16130809;19;129673;-46
2022/08/28 10:14:55;;;;;;;4.95;1.30;;;;;;;23.84;35.53;102004.78;16135806;19;129194;-44
2022/08/28 10:20:32;;;;;;;3.23;1.30;;;;;;;23.82;35.89;102003.09;16133833;19;130347;-44
2022/08/28 10:26:03;;;;;;;2.95;1.35;;;;;;;23.80;35.62;101998.88;16134243;19;129796;-44
2022/08/28 10:31:35;;;;;;;5.13;1.08;;;;;;;23.80;35.80;101998.88;16134840;19;130079;-45
2022/08/28 10:37:17;;;;;;;5.00;1.42;;;;;;;23.77;35.96;102008.63;16135519;19;129655;-45
2022/08/28 10:43:12;;;;;;;3.90;1.40;;;;;;;23.75;35.78;102001.59;16126901;19;129586;-44
2022/08/28 10:49:07;;;;;;;8.82;1.55;;;;;;;23.74;35.84;102008.28;16126429;19;129393;-47
2022/08/28 10:54:51;;;;;;;13.02;1.55;;;;;;;23.74;35.84;102011.09;16138922;19;129362;-44
2022/08/28 11:00:18;;;;;;;11.77;9.48;;;;;;;23.73;35.75;101999.03;16148496;19;129098;-48
2022/08/28 11:05:53;;;;;;;17.35;13.30;;;;;;;23.71;35.97;102006.00;16146170;19;129408;-45
2022/08/28 11:11:43;;;;;;;11.50;9.18;;;;;;;23.68;35.42;102006.50;16146384;19;129750;-44
2022/08/28 11:17:08;;;;;;;9.32;7.00;;;;;;;23.65;35.32;102008.69;16147329;19;129511;-45
2022/08/28 11:22:42;;;;;;;10.90;5.60;;;;;;;23.64;35.59;102001.41;16143519;19;129810;-46
2022/08/28 11:28:23;;;;;;;10.32;4.55;;;;;;;23.64;35.22;102000.59;16143337;19;129441;-49
2022/08/28 11:33:49;;;;;;;9.10;4.10;;;;;;;23.63;35.29;102002.50;16145599;19;129991;-46
2022/08/28 11:39:13;;;;;;;5.13;2.95;;;;;;;23.64;35.48;102001.41;16144416;19;129307;-46
2022/08/28 11:44:44;;;;;;;4.60;2.50;;;;;;;23.62;35.11;101998.06;16145506;19;130788;-45
2022/08/28 11:50:20;;;;;;;6.00;2.20;;;;;;;23.62;35.36;102003.66;16140831;19;132258;-47
2022/08/28 11:56:00;;;;;;;4.63;1.65;;;;;;;23.59;35.12;101992.09;16144757;19;129527;-45
2022/08/28 12:01:31;;;;;;;6.05;1.33;;;;;;;23.57;35.11;101995.13;16142078;19;129842;-44
2022/08/28 12:07:11;;;;;;;4.13;1.27;;;;;;;23.59;34.81;102001.34;16140561;19;129166;-45
2022/08/28 12:12:44;;;;;;;3.05;1.00;;;;;;;23.60;35.02;101986.28;16144981;19;130229;-45
2022/08/28 12:18:09;;;;;;;4.30;1.00;;;;;;;23.59;34.43;101987.38;16143290;19;129386;-46
2022/08/28 12:23:39;;;;;;;4.33;1.37;;;;;;;23.59;34.43;101978.13;16144259;19;129317;-45
2022/08/28 12:29:05;;;;;;;5.18;1.17;;;;;;;23.60;34.95;101980.69;16139928;19;129117;-44
2022/08/28 12:34:42;;;;;;;3.28;1.10;;;;;;;23.59;34.58;101972.56;16139944;19;130180;-44
2022/08/28 12:40:12;;;;;;;4.25;1.17;;;;;;;23.61;34.65;101968.44;16137367;19;129378;-44
2022/08/28 12:45:41;;;;;;;5.15;0.93;;;;;;;23.59;34.54;101978.13;16139101;19;130621;-48
2022/08/28 12:51:07;;;;;;;2.38;0.95;;;;;;;23.59;34.54;101979.00;16140391;19;130731;-46
2022/08/28 12:56:35;;;;;;;4.15;1.00;;;;;;;23.59;34.28;101970.63;16138399;19;130458;-49
2022/08/28 13:02:10;;;;;;;4.40;1.30;;;;;;;23.58;34.11;101980.09;16137884;19;128964;-47
2022/08/28 13:07:43;;;;;;;;;;;;;;;23.55;34.31;101972.19;16137372;19;130286;-44
2022/08/28 13:13:16;;;;;;;7.80;1.00;;;;;;;23.58;33.98;101963.34;16140995;19;129506;-46
2022/08/28 13:18:51;;;;;;;3.97;1.13;;;;;;;23.60;34.23;101966.72;16136086;19;128994;-42
2022/08/28 13:24:22;;;;;;;5.40;1.25;;;;;;;23.58;33.69;101963.34;16136802;19;129307;-44
2022/08/28 13:30:07;;;;;;;4.10;1.08;;;;;;;23.58;33.83;101957.75;16133057;19;129054;-46
2022/08/28 13:35:37;;;;;;;3.03;0.90;;;;;;;23.61;33.95;101971.22;16139090;19;130264;-51
2022/08/28 13:41:03;;;;;;;4.93;1.05;;;;;;;23.60;34.22;101958.34;16135722;19;129607;-53
2022/08/28 13:46:25;;;;;;;5.10;1.17;;;;;;;23.61;33.81;101954.47;16135249;19;129398;-52
2022/08/28 13:51:47;;;;;;;2.25;1.00;;;;;;;23.63;34.19;101943.03;16137079;19;128865;-53
2022/08/28 13:57:12;;;;;;;5.97;1.60;;;;;;;23.65;33.91;101941.66;16133991;19;130816;-52
2022/08/28 14:08:18;;;;;;;3.35;1.10;;;;;;;23.71;33.56;101945.38;16128352;19;129869;-54
2022/08/28 14:13:42;;;;;;;2.72;1.10;;;;;;;23.77;33.82;101943.50;16132290;19;129527;-50
2022/08/28 14:19:15;;;;;;;5.85;1.20;;;;;;;23.81;33.67;101939.97;16134420;19;128977;-47
2022/08/28 14:24:37;;;;;;;5.50;1.10;;;;;;;23.86;33.73;101941.09;16132742;19;129513;-44
2022/08/28 14:30:00;;;;;;;4.38;0.90;;;;;;;23.88;33.38;101941.69;16138005;19;131448;-45
2022/08/28 14:35:22;;;;;;;10.57;1.33;;;;;;;23.90;33.24;101925.53;16143756;19;131938;-45
2022/08/28 14:40:44;;;;;;;4.07;0.90;;;;;;;23.96;33.22;101924.47;16143573;19;129493;-45
2022/08/28 14:46:06;;;;;;;3.95;0.90;;;;;;;23.99;33.08;101909.16;16144301;19;129426;-44
2022/08/28 14:51:33;;;;;;;3.60;1.05;;;;;;;24.01;32.87;101913.38;16147717;19;129789;-45
2022/08/28 14:56:55;;;;;;;7.25;1.10;;;;;;;24.04;33.03;101915.66;16146757;19;128911;-46
2022/08/28 15:02:17;;;;;;;7.63;0.82;;;;;;;24.09;33.29;101914.88;16146016;19;129025;-43
2022/08/28 15:07:39;;;;;;;5.32;0.88;;;;;;;24.14;33.14;101920.50;16145172;19;129419;-46
2022/08/28 15:13:01;;;;;;;2.17;0.90;;;;;;;24.17;32.58;101914.41;16145739;19;128883;-47
2022/08/28 15:18:23;;;;;;;5.40;1.00;;;;;;;24.18;33.13;101904.91;16146098;19;129489;-49
2022/08/28 15:23:49;;;;;;;2.72;0.90;;;;;;;24.17;32.40;101899.59;16147471;19;129864;-44
2022/08/28 15:29:11;;;;;;;3.25;0.90;;;;;;;24.14;32.47;101908.50;16143293;19;129629;-44
2022/08/28 15:34:32;;;;;;;4.22;0.80;;;;;;;24.13;32.62;101899.25;16144514;19;129054;-44
2022/08/28 15:45:37;;;;;;;8.57;1.00;;;;;;;24.12;32.15;101917.16;16141851;19;130251;-45
2022/08/28 15:50:59;;;;;;;3.97;0.75;;;;;;;24.10;32.35;101909.03;16136822;19;129300;-43
2022/08/28 15:56:22;;;;;;;4.05;1.20;;;;;;;24.08;32.84;101910.41;16134246;19;129372;-45
2022/08/28 16:01:45;;;;;;;4.20;1.05;;;;;;;24.07;32.45;101903.09;16141114;19;128961;-43
2022/08/28 16:07:06;;;;;;;6.50;1.45;;;;;;;24.05;32.11;101902.50;16142054;19;129885;-43
2022/08/28 16:12:28;;;;;;;2.85;1.30;;;;;;;24.03;32.48;101915.91;16140748;19;133297;-49
2022/08/28 16:17:50;;;;;;;2.67;1.25;;;;;;;24.02;32.47;101908.63;16140276;19;129745;-43
2022/08/28 16:23:13;;;;;;;2.30;1.10;;;;;;;23.99;32.54;101910.00;16141883;19;129149;-43
2022/08/28 16:28:35;;;;;;;4.10;1.50;;;;;;;23.97;32.62;101913.06;16136512;19;129155;-43
2022/08/28 16:33:59;;;;;;;2.45;0.90;;;;;;;23.96;32.60;101918.88;16136280;19;129599;-44
2022/08/28 16:39:22;;;;;;;2.17;0.90;;;;;;;23.94;33.07;101919.16;16137012;19;129460;-44
2022/08/28 16:44:43;;;;;;;5.05;0.88;;;;;;;23.93;32.74;101917.47;16139559;19;129386;-52
2022/08/28 16:50:11;;;;;;;1.83;0.77;;;;;;;23.94;32.75;101921.97;16134362;19;129532;-46
2022/08/28 16:55:33;;;;;;;2.03;0.80;;;;;;;23.92;32.75;101912.97;16139152;19;129538;-51
2022/08/28 17:00:55;;;;;;;316.23;107.60;;;;;;;23.91;32.63;101910.44;16140044;19;129196;-53
2022/08/28 17:06:28;;;;;;;209.25;67.32;;;;;;;23.92;33.01;101915.78;16136748;19;130408;-52
2022/08/28 17:11:49;;;;;;;151.25;47.38;;;;;;;23.93;33.58;101913.84;16123648;19;130104;-52
2022/08/28 17:17:12;;;;;;;119.22;40.53;;;;;;;23.96;33.95;101913.31;16135174;19;129990;-45
2022/08/28 17:22:34;;;;;;;97.88;36.20;;;;;;;24.02;33.70;101917.88;16133350;19;131048;-52
2022/08/28 17:27:56;;;;;;;83.95;28.98;;;;;;;24.04;34.06;101910.06;16134598;19;129808;-52
2022/08/28 17:33:18;;;;;;;68.88;23.85;;;;;;;24.06;34.12;101902.25;16136625;19;129675;-53
2022/08/28 17:38:43;;;;;;;59.25;21.08;;;;;;;24.07;34.57;101906.72;16134313;19;129943;-52
2022/08/28 17:44:06;;;;;;;50.42;15.18;;;;;;;24.08;34.80;101905.63;16133349;19;130089;-53
2022/08/28 17:49:27;;;;;;;38.00;12.13;;;;;;;24.07;34.51;101908.69;16127542;19;130139;-48
2022/08/28 17:54:50;;;;;;;42.85;10.45;;;;;;;24.05;33.98;101910.91;16133985;19;129576;-51
2022/08/28 18:00:15;;;;;;;35.70;8.27;;;;;;;24.03;33.64;101915.91;16133683;19;129038;-45
2022/08/28 18:05:39;;;;;;;25.10;6.60;;;;;;;23.99;33.52;101917.53;16130890;19;129045;-49
2022/08/28 18:11:01;;;;;;;22.80;5.95;;;;;;;23.95;33.12;101918.06;16123778;19;129433;-47
2022/08/28 18:16:23;;;;;;;20.58;4.72;;;;;;;23.93;33.47;101917.47;16131772;19;130941;-47
2022/08/28 18:21:53;;;;;;;20.27;4.32;;;;;;;23.91;33.41;101922.47;16128454;19;129641;-44
2022/08/28 18:27:15;;;;;;;9.90;3.70;;;;;;;23.87;33.52;101920.44;16126226;19;129256;-43
2022/08/28 18:32:36;;;;;;;12.82;3.85;;;;;;;23.83;33.17;101936.88;16128596;19;129554;-44
2022/08/28 18:37:59;;;;;;;15.73;3.33;;;;;;;23.81;33.42;101936.31;16130968;19;129900;-47
2022/08/28 18:43:21;;;;;;;8.80;3.03;;;;;;;23.77;33.73;101938.75;16124706;19;129355;-43
2022/08/28 18:48:43;;;;;;;6.28;3.20;;;;;;;23.76;33.58;101941.78;16124738;19;129705;-43
2022/08/28 18:54:05;;;;;;;9.60;3.05;;;;;;;23.74;33.79;101955.22;16129575;19;129039;-44
2022/08/28 18:59:30;;;;;;;6.65;2.83;;;;;;;23.73;33.79;101959.09;16130249;19;129481;-44
2022/08/28 19:04:52;;;;;;;9.50;2.63;;;;;;;23.72;33.83;101963.00;16129670;19;129334;-44
2022/08/28 19:10:15;;;;;;;12.20;2.80;;;;;;;23.68;33.88;101967.38;16122823;19;130026;-45
2022/08/28 19:15:54;;;;;;;9.93;2.28;;;;;;;23.65;33.92;101975.19;16137819;19;130728;-44
2022/08/28 19:21:18;;;;;;;19.00;2.60;;;;;;;23.65;34.11;101983.56;16144023;19;129752;-46
2022/08/28 19:26:40;;;;;;;25.50;2.72;;;;;;;23.64;34.22;101979.06;16145346;19;129721;-44
2022/08/28 19:32:02;;;;;;;26.58;2.95;;;;;;;23.63;34.86;101984.91;16139472;19;129890;-44
2022/08/28 19:37:24;;;;;;;21.52;2.70;;;;;;;23.65;34.86;101983.56;16142932;19;129758;-45
2022/08/28 19:42:45;;;;;;;14.10;2.33;;;;;;;23.67;34.91;101988.91;16139601;19;129340;-43
2022/08/28 19:48:07;;;;;;;12.90;1.60;;;;;;;23.69;35.14;101997.88;16137493;19;129939;-42
2022/08/28 19:53:30;;;;;;;10.05;1.52;;;;;;;23.71;35.30;102011.59;16141304;19;129213;-43
2022/08/28 19:58:53;;;;;;;24.80;2.28;;;;;;;23.72;35.45;102018.88;16141227;19;129582;-43
2022/08/28 20:04:16;;;;;;;11.48;1.73;;;;;;;23.74;35.50;102019.47;16140565;19;129842;-44
2022/08/28 20:09:38;;;;;;;10.63;1.60;;;;;;;23.74;35.52;102027.84;16138152;19;130033;-43
2022/08/28 20:15:00;;;;;;;12.88;1.48;;;;;;;23.74;35.89;102034.28;16141309;19;131871;-47
2022/08/28 20:20:24;;;;;;;8.57;1.40;;;;;;;23.75;35.68;102043.50;16141549;19;131232;-45
2022/08/28 20:25:50;;;;;;;5.72;1.17;;;;;;;23.75;35.79;102049.09;16136370;19;129905;-43
2022/08/28 20:31:15;;;;;;;9.70;1.08;;;;;;;23.75;36.12;102060.28;16135330;19;130932;-44
2022/08/28 20:36:37;;;;;;;18.97;1.40;;;;;;;23.74;36.24;102051.03;16138332;19;129460;-43
2022/08/28 20:41:59;;;;;;;10.52;1.20;;;;;;;23.74;36.04;102055.78;16138493;19;130956;-43
2022/08/28 20:47:21;;;;;;;6.97;1.45;;;;;;;23.74;35.76;102064.16;16136024;19;129250;-43
2022/08/28 20:52:44;;;;;;;3.85;1.45;;;;;;;23.71;35.77;102068.28;16134567;19;129807;-44
2022/08/28 20:58:06;;;;;;;5.55;1.50;;;;;;;23.68;35.65;102063.25;16140606;19;131876;-43
2022/08/28 21:03:28;;;;;;;5.75;1.38;;;;;;;23.68;35.27;102067.97;16137438;19;129383;-43
2022/08/28 21:08:49;;;;;;;5.35;1.33;;;;;;;23.65;35.81;102061.78;16137301;19;129173;-44
2022/08/28 21:14:12;;;;;;;3.85;1.30;;;;;;;23.63;35.57;102066.75;16138829;19;129905;-45
2022/08/28 21:19:34;;;;;;;4.07;1.27;;;;;;;23.61;35.97;102057.81;16137525;19;129631;-43
2022/08/28 21:25:01;;;;;;;3.33;1.02;;;;;;;23.60;35.39;102061.72;16136249;19;129010;-43
2022/08/28 21:30:23;;;;;;;2.42;1.05;;;;;;;23.58;35.67;102063.91;16133576;19;129632;-45
2022/08/28 21:35:50;;;;;;;3.45;1.00;;;;;;;23.57;35.30;102066.94;16136843;19;130680;-44
2022/08/28 21:41:13;;;;;;;3.33;1.40;;;;;;;23.55;35.68;102069.13;16135450;19;128769;-42
2022/08/28 21:46:35;;;;;;;2.03;0.80;;;;;;;23.53;35.89;102065.72;16131090;19;129555;-42
2022/08/28 21:52:00;;;;;;;2.92;1.10;;;;;;;23.53;35.67;102074.09;16130725;19;130295;-42
2022/08/28 21:57:23;;;;;;;2.93;1.10;;;;;;;23.51;36.03;102063.16;16133793;19;129488;-43
2022/08/28 22:02:45;;;;;;;3.22;1.00;;;;;;;23.51;35.73;102063.16;16134376;19;130023;-43
2022/08/28 22:08:07;;;;;;;2.58;1.00;;;;;;;23.49;35.81;102068.19;16133253;19;130504;-44
2022/08/28 22:13:29;;;;;;;1.33;0.82;;;;;;;23.49;35.62;102076.56;16134533;19;129041;-46
2022/08/28 22:18:51;;;;;;;1.90;0.80;;;;;;;23.48;35.71;102074.88;16134163;19;129223;-43
2022/08/28 22:24:13;;;;;;;3.85;0.82;;;;;;;23.46;35.65;102068.69;16128882;19;129608;-46
2022/08/28 22:29:35;;;;;;;2.65;0.80;;;;;;;23.45;35.77;102069.78;16133265;19;128917;-43
2022/08/28 22:34:57;;;;;;;3.88;1.00;;;;;;;23.44;35.66;102073.66;16131796;19;130387;-44
2022/08/28 22:40:20;;;;;;;6.22;0.80;;;;;;;23.43;35.58;102080.34;16134894;19;129910;-49
2022/08/28 22:45:45;;;;;;;5.13;1.02;;;;;;;23.42;35.84;102087.03;16127527;19;129397;-44
2022/08/28 22:51:11;;;;;;;1.40;1.00;;;;;;;23.40;35.61;102090.09;16136615;19;129264;-44
2022/08/28 22:56:33;;;;;;;2.72;0.90;;;;;;;23.39;35.58;102085.59;16147938;19;129646;-43
2022/08/28 23:01:55;;;;;;;1.20;0.82;;;;;;;23.39;35.85;102088.38;16145711;19;129335;-46
2022/08/28 23:07:16;;;;;;;2.40;1.20;;;;;;;23.38;36.07;102083.06;16146590;19;128970;-45
2022/08/28 23:12:38;;;;;;;2.08;0.80;;;;;;;23.37;35.71;102078.56;16142697;19;129895;-47
2022/08/28 23:18:01;;;;;;;3.45;0.95;;;;;;;23.35;35.95;102088.03;16145739;19;129593;-45
2022/08/28 23:23:23;;;;;;;1.42;0.90;;;;;;;23.37;35.81;102075.78;16144041;19;129545;-45
2022/08/28 23:28:45;;;;;;;0.98;0.77;;;;;;;23.33;35.96;102070.69;16143167;19;130604;-46
2022/08/28 23:34:07;;;;;;;2.25;0.93;;;;;;;23.33;35.84;102073.50;16144695;19;129911;-45
2022/08/28 23:39:29;;;;;;;2.75;0.90;;;;;;;23.32;35.91;102071.78;16144569;19;129542;-46
2022/08/28 23:44:50;;;;;;;1.67;0.90;;;;;;;23.32;35.84;102082.97;16138433;19;129893;-45
2022/08/28 23:50:16;;;;;;;4.45;0.88;;;;;;;23.31;35.70;102077.63;16140291;19;129273;-44
2022/08/28 23:55:38;;;;;;;3.55;0.95;;;;;;;23.30;35.58;102087.09;16142741;19;129615;-47
